Harrison, Michigan
Current Conditions -  °F | °C
As of 3:53 AM on Friday 31 Oct 2014 (Local Time) from KHTL Reporting Station
Light Rain Light Rain  
Wind Chill: 34°   Ceiling: 3600
Heat Index: 39°   Visibility: 10mi
Dew Point: 36°   Wind: 7mph
Humidity: 89%   Direction: 320°NW
Pressure: 29.89"   Gusts: NA
Location:  44.02°N, 84.8°W
Report Text: KHTL 310753Z AUTO 32006KT 10SM -RA SCT010 BKN036 OVC050 04/02 A2989 RMK AO2 SLP131 P0001 T00390022
Loading
Personal Weather Stations






























Interactive Weather Map New forecast layout! Learn more

10-Day Weather Forecast

Advertisements
Track Severe Weather on mobile